createdAt,value
2022-08-16T00:00:46.661Z,95504.75
2022-08-16T00:03:14.891Z,95497.78
2022-08-16T00:05:48.409Z,95491.97
2022-08-16T00:08:35.777Z,95496.66
2022-08-16T00:11:06.640Z,95500.09
2022-08-16T00:13:41.737Z,95492.09
2022-08-16T00:17:00.528Z,95497.44
2022-08-16T00:19:01.287Z,95501.13
2022-08-16T00:21:29.327Z,95486.44
2022-08-16T00:23:56.694Z,95490.59
2022-08-16T00:26:35.740Z,95492.03
2022-08-16T00:29:16.773Z,95483.03
2022-08-16T00:32:01.372Z,95486.63
2022-08-16T00:34:44.526Z,95482.75
2022-08-16T00:37:58.285Z,95466.25
2022-08-16T00:40:34.045Z,95471.50
2022-08-16T00:43:19.255Z,95467.16
2022-08-16T00:46:33.184Z,95469.06
2022-08-16T00:48:55.400Z,95473.75
2022-08-16T00:51:26.410Z,95472.97
2022-08-16T00:54:00.050Z,95474.41
2022-08-16T00:56:57.824Z,95469.06
2022-08-16T00:59:21.800Z,95469.84
2022-08-16T01:01:51.579Z,95465.16
2022-08-16T01:04:25.804Z,95469.47
2022-08-16T01:07:04.769Z,95476.28
2022-08-16T01:09:38.769Z,95483.16
2022-08-16T01:12:11.459Z,95488.72
2022-08-16T01:14:58.620Z,95479.59
2022-08-16T01:17:28.999Z,95485.63
2022-08-16T01:20:23.934Z,95486.38
2022-08-16T01:23:13.169Z,95493.81
2022-08-16T01:26:00.071Z,95485.34
2022-08-16T01:28:38.849Z,95481.25
2022-08-16T01:31:14.878Z,95491.13
2022-08-16T01:33:44.721Z,95490.91
2022-08-16T01:36:13.166Z,95499.09
2022-08-16T01:38:53.021Z,95502.88
2022-08-16T01:41:30.390Z,95501.31
2022-08-16T01:44:01.019Z,95494.41
2022-08-16T01:46:39.204Z,95492.84
2022-08-16T01:49:43.724Z,95488.50
2022-08-16T01:52:27.647Z,95495.28
2022-08-16T01:55:05.261Z,95492.50
2022-08-16T01:57:35.552Z,95490.94
2022-08-16T02:00:19.277Z,95499.56
2022-08-16T02:02:52.122Z,95496.25
2022-08-16T02:05:23.420Z,95497.06
2022-08-16T02:07:52.126Z,95502.50
2022-08-16T02:10:21.680Z,95510.94
2022-08-16T02:12:56.160Z,95513.72
2022-08-16T02:15:29.899Z,95522.84
2022-08-16T02:18:01.445Z,95523.28
2022-08-16T02:20:36.749Z,95530.41
2022-08-16T02:23:09.971Z,95524.28
2022-08-16T02:25:51.068Z,95528.25
2022-08-16T02:28:20.679Z,95535.41
2022-08-16T02:30:52.207Z,95528.88
2022-08-16T02:33:24.902Z,95529.19
2022-08-16T02:36:14.289Z,95537.91
2022-08-16T02:38:42.528Z,95538.47
2022-08-16T02:41:12.121Z,95537.63
2022-08-16T02:43:40.670Z,95542.63
2022-08-16T02:46:08.829Z,95555.00
2022-08-16T02:48:39.012Z,95552.09
2022-08-16T02:51:10.811Z,95548.97
2022-08-16T02:53:45.429Z,95545.06
2022-08-16T02:56:15.622Z,95549.91
2022-08-16T02:58:46.324Z,95541.13
2022-08-16T03:01:24.988Z,95546.78
2022-08-16T03:04:41.105Z,95544.44
2022-08-16T03:06:56.552Z,95541.19
2022-08-16T03:09:36.959Z,95551.75
2022-08-16T03:12:05.272Z,95561.22
2022-08-16T03:14:34.230Z,95559.00
2022-08-16T03:17:03.893Z,95566.31
2022-08-16T03:19:56.445Z,95570.56
2022-08-16T03:22:28.894Z,95569.47
2022-08-16T03:25:07.607Z,95564.13
2022-08-16T03:27:41.054Z,95568.06
2022-08-16T03:30:21.323Z,95552.38
2022-08-16T03:33:09.342Z,95553.31
2022-08-16T03:35:46.560Z,95546.06
2022-08-16T03:38:33.790Z,95540.53
2022-08-16T03:41:25.374Z,95534.31
2022-08-16T03:43:58.373Z,95545.66
2022-08-16T03:46:47.537Z,95541.66
2022-08-16T03:49:20.279Z,95540.34
2022-08-16T03:51:52.222Z,95531.69
2022-08-16T03:54:26.169Z,95536.78
2022-08-16T03:56:57.280Z,95544.34
2022-08-16T03:59:30.312Z,95546.91
2022-08-16T04:02:22.048Z,95535.66
2022-08-16T04:04:52.100Z,95538.69
2022-08-16T04:07:19.229Z,95541.34
2022-08-16T04:09:47.889Z,95551.09
2022-08-16T04:12:53.763Z,95545.00
2022-08-16T04:15:02.989Z,95558.56
2022-08-16T04:17:37.000Z,95565.47
2022-08-16T04:20:11.086Z,95559.97
2022-08-16T04:22:57.279Z,95571.34
2022-08-16T04:25:28.940Z,95578.44
2022-08-16T04:27:57.149Z,95581.56
2022-08-16T04:30:44.507Z,95583.19
2022-08-16T04:33:14.970Z,95586.31
2022-08-16T04:35:43.311Z,95587.44
2022-08-16T04:38:21.274Z,95588.31
2022-08-16T04:40:52.649Z,95590.66
2022-08-16T04:43:21.572Z,95588.00
2022-08-16T04:46:00.412Z,95596.56
2022-08-16T04:48:33.905Z,95608.16
2022-08-16T04:51:11.575Z,95599.03
2022-08-16T04:53:47.477Z,95609.72
2022-08-16T04:56:18.042Z,95605.94
2022-08-16T04:58:46.947Z,95606.84
2022-08-16T05:01:19.378Z,95612.75
2022-08-16T05:04:01.114Z,95618.31
2022-08-16T05:06:42.480Z,95623.56
2022-08-16T05:09:23.174Z,95620.91
2022-08-16T05:11:57.421Z,95618.59
2022-08-16T05:14:46.167Z,95618.72
2022-08-16T05:17:18.745Z,95618.31
2022-08-16T05:19:57.624Z,95632.78
2022-08-16T05:22:38.709Z,95627.44
2022-08-16T05:25:09.181Z,95621.97
2022-08-16T05:27:42.978Z,95627.22
2022-08-16T05:30:35.783Z,95621.19
2022-08-16T05:33:06.011Z,95632.09
2022-08-16T05:35:36.298Z,95633.91
2022-08-16T05:38:32.791Z,95633.00
2022-08-16T05:41:09.538Z,95627.66
2022-08-16T05:43:43.787Z,95631.88
2022-08-16T05:46:29.760Z,95632.34
2022-08-16T05:49:08.511Z,95629.34
2022-08-16T05:51:40.271Z,95634.91
2022-08-16T05:54:11.587Z,95642.47
2022-08-16T05:56:43.176Z,95635.25
2022-08-16T05:59:11.092Z,95634.91
2022-08-16T06:01:39.410Z,95624.72
2022-08-16T06:04:13.146Z,95630.50
2022-08-16T06:06:56.682Z,95628.66
2022-08-16T06:09:42.840Z,95625.63
2022-08-16T06:12:27.430Z,95628.09
2022-08-16T06:15:04.176Z,95631.56
2022-08-16T06:17:42.465Z,95629.44
2022-08-16T06:20:24.274Z,95632.66
2022-08-16T06:23:03.127Z,95630.25
2022-08-16T06:25:44.221Z,95641.84
2022-08-16T06:28:36.612Z,95642.25
2022-08-16T06:31:12.173Z,95650.78
2022-08-16T06:33:44.748Z,95648.34
2022-08-16T06:36:15.438Z,95643.25
2022-08-16T06:38:56.109Z,95648.25
2022-08-16T06:41:44.159Z,95648.06
2022-08-16T06:44:24.599Z,95645.81
2022-08-16T06:46:58.439Z,95651.44
2022-08-16T06:49:30.521Z,95652.50
2022-08-16T06:52:02.671Z,95654.56
2022-08-16T06:54:35.831Z,95655.53
2022-08-16T06:57:03.021Z,95653.13
2022-08-16T06:59:48.509Z,95657.66
2022-08-16T07:02:32.806Z,95665.97
2022-08-16T07:05:04.078Z,95664.97
2022-08-16T07:07:47.999Z,95660.59
2022-08-16T07:10:19.930Z,95658.22
2022-08-16T07:13:03.462Z,95669.47
2022-08-16T07:15:34.770Z,95673.16
2022-08-16T07:18:04.358Z,95666.22
2022-08-16T07:20:35.981Z,95669.34
2022-08-16T07:23:16.070Z,95664.78
2022-08-16T07:25:55.568Z,95667.91
2022-08-16T07:28:26.380Z,95669.50
2022-08-16T07:30:55.820Z,95667.09
2022-08-16T07:33:53.350Z,95675.44
2022-08-16T07:36:30.807Z,95670.84
2022-08-16T07:38:58.863Z,95673.09
2022-08-16T07:41:29.080Z,95674.06
2022-08-16T07:44:00.520Z,95674.22
2022-08-16T07:46:37.937Z,95674.50
2022-08-16T07:49:19.622Z,95684.38
2022-08-16T07:51:47.409Z,95688.31
2022-08-16T07:54:20.893Z,95686.78
2022-08-16T07:57:00.760Z,95693.72
2022-08-16T07:59:45.604Z,95691.03
2022-08-16T08:02:20.538Z,95688.13
2022-08-16T08:04:56.509Z,95689.31
2022-08-16T08:07:27.480Z,95688.56
2022-08-16T08:09:57.657Z,95687.66
2022-08-16T08:12:32.127Z,95691.47
2022-08-16T08:15:09.581Z,95698.28
2022-08-16T08:17:42.960Z,95687.63
2022-08-16T08:20:28.667Z,95703.97
2022-08-16T08:23:00.608Z,95690.75
2022-08-16T08:25:55.384Z,95703.34
2022-08-16T08:28:22.219Z,95696.41
2022-08-16T08:31:01.280Z,95698.66
2022-08-16T08:33:33.969Z,95700.25
2022-08-16T08:36:07.598Z,95698.25
2022-08-16T08:38:45.826Z,95702.56
2022-08-16T08:41:18.900Z,95700.00
2022-08-16T08:43:50.362Z,95709.22
2022-08-16T08:46:21.791Z,95709.41
2022-08-16T08:49:01.914Z,95703.66
2022-08-16T08:51:38.552Z,95707.28
2022-08-16T08:54:11.589Z,95712.78
2022-08-16T08:56:45.724Z,95712.00
2022-08-16T08:59:46.279Z,95709.50
2022-08-16T09:02:19.402Z,95704.22
2022-08-16T09:04:52.718Z,95710.09
2022-08-16T09:07:23.828Z,95710.56
2022-08-16T09:10:00.885Z,95711.59
2022-08-16T09:12:46.612Z,95708.69
2022-08-16T09:15:21.828Z,95708.44
2022-08-16T09:17:56.135Z,95712.41
2022-08-16T09:20:29.577Z,95714.78
2022-08-16T09:22:57.713Z,95716.34
2022-08-16T09:25:39.900Z,95708.19
2022-08-16T09:28:13.689Z,95708.69
2022-08-16T09:31:17.188Z,95709.84
2022-08-16T09:33:45.030Z,95710.78
2022-08-16T09:36:32.168Z,95704.28
2022-08-16T09:39:02.303Z,95701.16
2022-08-16T09:41:30.520Z,95701.09
2022-08-16T09:44:02.273Z,95704.88
2022-08-16T09:46:49.375Z,95706.88
2022-08-16T09:49:19.650Z,95711.84
2022-08-16T09:51:51.489Z,95703.59
2022-08-16T09:54:21.310Z,95707.16
2022-08-16T09:56:52.273Z,95705.59
2022-08-16T09:59:25.154Z,95713.50
2022-08-16T10:01:53.315Z,95711.22
2022-08-16T10:04:31.243Z,95706.28
2022-08-16T10:07:15.527Z,95696.66
2022-08-16T10:09:54.574Z,95700.59
2022-08-16T10:12:44.399Z,95703.69
2022-08-16T10:15:17.019Z,95703.75
2022-08-16T10:18:01.370Z,95704.16
2022-08-16T10:20:33.918Z,95702.19
2022-08-16T10:23:06.824Z,95717.31
2022-08-16T10:27:20.325Z,95713.44
2022-08-16T10:28:29.183Z,95713.06
2022-08-16T10:31:00.869Z,95719.22
2022-08-16T10:33:33.325Z,95718.44
2022-08-16T10:36:04.529Z,95717.69
2022-08-16T10:38:36.584Z,95713.41
2022-08-16T10:41:08.420Z,95722.31
2022-08-16T10:43:39.091Z,95728.50
2022-08-16T10:46:33.774Z,95725.41
2022-08-16T10:48:56.160Z,95735.00
2022-08-16T10:51:34.638Z,95742.22
2022-08-16T10:54:29.709Z,95747.34
2022-08-16T10:56:59.165Z,95757.13
2022-08-16T10:59:38.192Z,95762.25
2022-08-16T11:13:57.191Z,95786.59
2022-08-16T11:16:26.759Z,95793.38
2022-08-16T11:19:04.634Z,95798.53
2022-08-16T11:22:11.095Z,95794.81
2022-08-16T11:24:41.409Z,95801.31
2022-08-16T11:27:24.068Z,95802.09
2022-08-16T11:30:00.135Z,95792.38
2022-08-16T11:32:32.195Z,95802.47
2022-08-16T11:35:14.327Z,95808.72
2022-08-16T11:38:46.374Z,95811.94
2022-08-16T11:40:58.188Z,95804.13
2022-08-16T11:43:34.779Z,95804.88
2022-08-16T11:46:44.939Z,95805.00
2022-08-16T11:48:53.369Z,95805.81
2022-08-16T11:51:20.520Z,95801.47
2022-08-16T11:53:47.570Z,95798.78
2022-08-16T11:56:14.901Z,95800.38
2022-08-16T11:58:51.476Z,95795.13
2022-08-16T12:01:29.651Z,95799.81
2022-08-16T12:04:11.363Z,95809.41
2022-08-16T12:06:40.987Z,95800.28
2022-08-16T12:09:08.298Z,95800.03
2022-08-16T12:11:37.141Z,95801.94
2022-08-16T12:14:06.849Z,95798.25
2022-08-16T12:16:35.849Z,95807.19
2022-08-16T12:19:05.460Z,95808.84
2022-08-16T12:21:35.984Z,95803.28
2022-08-16T12:24:21.518Z,95794.66
2022-08-16T12:26:51.335Z,95790.63
2022-08-16T12:29:19.619Z,95792.63
2022-08-16T12:32:01.664Z,95787.66
2022-08-16T12:34:34.628Z,95787.31
2022-08-16T12:37:04.812Z,95782.59
2022-08-16T12:39:33.709Z,95779.88
2022-08-16T12:42:01.484Z,95783.41
2022-08-16T12:44:31.382Z,95779.66
2022-08-16T12:47:17.460Z,95779.84
2022-08-16T12:49:45.177Z,95772.25
2022-08-16T12:52:32.712Z,95777.59
2022-08-16T12:55:00.390Z,95784.53
2022-08-16T12:57:36.817Z,95784.69
2022-08-16T13:00:13.021Z,95782.88
2022-08-16T13:02:54.299Z,95773.44
2022-08-16T13:05:22.818Z,95777.00
2022-08-16T13:07:53.268Z,95767.75
2022-08-16T13:10:37.759Z,95756.72
2022-08-16T13:13:09.295Z,95764.94
2022-08-16T13:15:51.751Z,95765.94
2022-08-16T13:18:33.909Z,95761.13
2022-08-16T13:21:01.939Z,95768.06
2022-08-16T13:23:31.068Z,95764.22
2022-08-16T13:25:58.738Z,95763.06
2022-08-16T13:28:26.061Z,95756.06
2022-08-16T13:30:55.847Z,95758.34
2022-08-16T13:33:31.339Z,95753.19
2022-08-16T13:36:00.831Z,95751.72
2022-08-16T13:38:37.131Z,95752.09
2022-08-16T13:41:11.021Z,95749.38
2022-08-16T13:43:39.678Z,95752.97
2022-08-16T13:46:07.302Z,95743.09
2022-08-16T13:48:43.303Z,95731.50
2022-08-16T13:51:16.918Z,95741.28
2022-08-16T13:53:59.286Z,95730.91
2022-08-16T13:56:31.750Z,95733.28
2022-08-16T13:59:19.161Z,95732.09
2022-08-16T14:01:55.890Z,95727.34
2022-08-16T14:04:34.173Z,95722.25
2022-08-16T14:07:04.540Z,95710.97
2022-08-16T14:09:34.630Z,95713.66
2022-08-16T14:12:04.316Z,95717.44
2022-08-16T14:14:37.574Z,95717.44
2022-08-16T14:17:05.258Z,95718.13
2022-08-16T14:19:36.874Z,95717.16
2022-08-16T14:22:30.140Z,95711.63
2022-08-16T14:25:00.432Z,95709.25
2022-08-16T14:27:30.488Z,95707.03
2022-08-16T14:29:59.300Z,95698.28
2022-08-16T14:32:33.207Z,95697.56
2022-08-16T14:35:06.019Z,95701.13
2022-08-16T14:37:35.309Z,95703.16
2022-08-16T14:40:03.644Z,95703.22
2022-08-16T14:42:31.129Z,95693.75
2022-08-16T14:45:00.396Z,95696.91
2022-08-16T14:47:34.112Z,95691.97
2022-08-16T14:50:02.554Z,95687.97
2022-08-16T14:52:54.086Z,95701.38
2022-08-16T14:55:17.090Z,95693.97
2022-08-16T14:57:44.518Z,95698.50
2022-08-16T15:00:13.159Z,95700.97
2022-08-16T15:02:42.989Z,95695.06
2022-08-16T15:05:11.830Z,95703.84
2022-08-16T15:07:44.954Z,95701.78
2022-08-16T15:10:21.670Z,95694.47
2022-08-16T15:12:56.264Z,95695.59
2022-08-16T15:15:28.314Z,95695.50
2022-08-16T15:17:57.356Z,95706.91
2022-08-16T15:20:29.432Z,95701.44
2022-08-16T15:22:58.109Z,95700.06
2022-08-16T15:25:41.871Z,95693.81
2022-08-16T15:28:30.701Z,95691.66
2022-08-16T15:31:03.729Z,95683.94
2022-08-16T15:33:34.552Z,95690.44
2022-08-16T15:36:02.660Z,95685.94
2022-08-16T15:38:56.866Z,95682.53
2022-08-16T15:41:43.041Z,95683.94
2022-08-16T15:44:17.925Z,95683.53
2022-08-16T15:46:56.618Z,95677.47
2022-08-16T15:49:34.860Z,95687.09
2022-08-16T15:52:07.529Z,95680.19
2022-08-16T15:54:51.395Z,95673.72
2022-08-16T15:57:26.149Z,95672.75
2022-08-16T15:59:55.976Z,95672.16
2022-08-16T16:02:39.282Z,95675.78
2022-08-16T16:05:09.841Z,95682.47
2022-08-16T16:07:40.778Z,95675.97
2022-08-16T16:10:13.192Z,95680.00
2022-08-16T16:12:51.126Z,95680.81
2022-08-16T16:15:29.423Z,95681.25
2022-08-16T16:17:57.303Z,95680.91
2022-08-16T16:20:27.967Z,95675.13
2022-08-16T16:23:01.238Z,95676.28
2022-08-16T16:25:29.983Z,95679.38
2022-08-16T16:27:59.506Z,95671.25
2022-08-16T16:30:38.039Z,95678.63
2022-08-16T16:33:20.898Z,95682.81
2022-08-16T16:35:55.281Z,95683.59
2022-08-16T16:38:29.079Z,95685.09
2022-08-16T16:40:58.010Z,95690.06
2022-08-16T16:43:31.427Z,95687.31
2022-08-16T16:45:59.580Z,95683.00
2022-08-16T16:48:29.669Z,95691.06
2022-08-16T16:51:08.714Z,95686.34
2022-08-16T16:53:41.500Z,95690.16
2022-08-16T16:56:19.814Z,95685.81
2022-08-16T16:58:57.198Z,95688.47
2022-08-16T17:01:35.134Z,95689.53
2022-08-16T17:04:31.467Z,95699.03
2022-08-16T17:07:00.431Z,95692.03
2022-08-16T17:09:27.583Z,95695.06
2022-08-16T17:11:55.886Z,95696.53
2022-08-16T17:14:31.819Z,95698.34
2022-08-16T17:16:59.537Z,95694.06
2022-08-16T17:19:31.723Z,95709.03
2022-08-16T17:21:59.772Z,95709.69
2022-08-16T17:24:31.380Z,95716.56
2022-08-16T17:27:08.657Z,95709.88
2022-08-16T17:29:45.931Z,95714.78
2022-08-16T17:32:44.567Z,95722.34
2022-08-16T17:35:10.828Z,95729.53
2022-08-16T17:37:50.918Z,95731.28
2022-08-16T17:40:46.840Z,95735.78
2022-08-16T17:43:20.049Z,95734.03
2022-08-16T17:45:47.738Z,95738.09
2022-08-16T17:48:15.371Z,95738.66
2022-08-16T17:50:43.183Z,95738.88
2022-08-16T17:53:11.261Z,95740.59
2022-08-16T17:55:42.168Z,95745.88
2022-08-16T17:58:23.249Z,95747.19
2022-08-16T18:00:54.371Z,95749.78
2022-08-16T18:04:06.865Z,95755.22
2022-08-16T18:06:15.801Z,95762.69
2022-08-16T18:08:42.998Z,95762.56
2022-08-16T18:11:10.657Z,95757.69
2022-08-16T18:13:43.397Z,95762.94
2022-08-16T18:16:12.139Z,95760.34
2022-08-16T18:18:39.099Z,95755.13
2022-08-16T18:21:24.746Z,95762.69
2022-08-16T18:23:51.969Z,95763.66
2022-08-16T18:26:18.976Z,95768.88
2022-08-16T18:28:46.072Z,95772.38
2022-08-16T18:31:13.039Z,95778.44
2022-08-16T18:33:43.321Z,95785.19
2022-08-16T18:36:21.265Z,95785.13
2022-08-16T18:38:50.400Z,95790.69
2022-08-16T18:41:18.245Z,95791.63
2022-08-16T18:44:22.422Z,95799.53
2022-08-16T18:46:32.641Z,95795.94
2022-08-16T18:49:01.340Z,95791.97
2022-08-16T18:51:28.379Z,95802.97
2022-08-16T18:53:55.328Z,95800.81
2022-08-16T18:56:22.494Z,95803.75
2022-08-16T18:58:49.557Z,95804.88
2022-08-16T19:01:16.814Z,95811.25
2022-08-16T19:03:44.010Z,95812.25
2022-08-16T19:06:14.216Z,95810.44
2022-08-16T19:08:44.852Z,95815.47
2022-08-16T19:11:15.282Z,95816.06
2022-08-16T19:13:44.533Z,95812.94
2022-08-16T19:16:13.148Z,95817.22
2022-08-16T19:18:40.277Z,95816.47
2022-08-16T19:21:08.759Z,95820.16
2022-08-16T19:23:37.419Z,95829.66
2022-08-16T19:26:24.586Z,95841.50
2022-08-16T19:28:58.386Z,95834.47
2022-08-16T19:31:30.174Z,95838.38
2022-08-16T19:33:57.985Z,95835.72
2022-08-16T19:36:35.522Z,95837.84
2022-08-16T19:39:10.092Z,95832.19
2022-08-16T19:41:40.010Z,95841.13
2022-08-16T19:44:08.098Z,95846.03
2022-08-16T19:46:35.223Z,95836.44
2022-08-16T19:49:02.464Z,95837.75
2022-08-16T19:51:29.754Z,95835.34
2022-08-16T19:53:56.840Z,95842.47
2022-08-16T19:56:25.990Z,95845.16
2022-08-16T19:59:18.263Z,95859.22
2022-08-16T20:01:42.747Z,95853.31
2022-08-16T20:04:12.969Z,95859.44
2022-08-16T20:06:41.276Z,95857.69
2022-08-16T20:09:08.111Z,95855.78
2022-08-16T20:11:37.463Z,95845.75
2022-08-16T20:14:05.786Z,95851.44
2022-08-16T20:16:32.939Z,95849.88
2022-08-16T20:19:00.150Z,95856.25
2022-08-16T20:21:27.081Z,95852.13
2022-08-16T20:24:09.979Z,95846.88
2022-08-16T20:26:41.380Z,95850.13
2022-08-16T20:29:08.400Z,95843.44
2022-08-16T20:31:35.344Z,95850.25
2022-08-16T20:34:02.440Z,95853.47
2022-08-16T20:36:30.112Z,95848.78
2022-08-16T20:38:59.709Z,95853.78
2022-08-16T20:41:27.300Z,95852.59
2022-08-16T20:43:55.154Z,95859.50
2022-08-16T20:46:22.442Z,95854.47
2022-08-16T20:48:49.641Z,95851.59
2022-08-16T20:51:16.880Z,95859.63
2022-08-16T20:53:44.241Z,95855.25
2022-08-16T20:56:12.291Z,95859.03
2022-08-16T20:58:39.253Z,95859.28
2022-08-16T21:01:07.499Z,95865.28
2022-08-16T21:03:35.061Z,95860.25
2022-08-16T21:06:02.873Z,95867.84
2022-08-16T21:08:52.189Z,95859.72
2022-08-16T21:11:17.590Z,95858.16
2022-08-16T21:13:44.573Z,95861.16
2022-08-16T21:16:11.634Z,95861.47
2022-08-16T21:18:38.901Z,95864.38
2022-08-16T21:21:05.870Z,95863.16
2022-08-16T21:23:33.289Z,95860.25
2022-08-16T21:26:00.360Z,95861.81
2022-08-16T21:28:40.214Z,95870.94
2022-08-16T21:31:10.000Z,95860.25
2022-08-16T21:33:37.140Z,95867.94
2022-08-16T21:36:04.445Z,95867.63
2022-08-16T21:38:31.498Z,95862.22
2022-08-16T21:41:00.143Z,95862.47
2022-08-16T21:43:31.995Z,95867.81
2022-08-16T21:46:00.363Z,95857.47
2022-08-16T21:48:34.000Z,95858.91
2022-08-16T21:51:12.022Z,95865.69
2022-08-16T21:53:39.221Z,95867.03
2022-08-16T21:56:07.864Z,95871.91
2022-08-16T21:58:39.781Z,95871.50
2022-08-16T22:01:06.980Z,95872.47
2022-08-16T22:03:34.050Z,95871.00
2022-08-16T22:06:13.188Z,95863.19
2022-08-16T22:08:49.227Z,95863.03
2022-08-16T22:11:23.863Z,95864.16
2022-08-16T22:13:57.840Z,95870.28
2022-08-16T22:16:32.642Z,95870.94
2022-08-16T22:19:01.581Z,95878.53
2022-08-16T22:21:29.450Z,95874.38
2022-08-16T22:23:58.606Z,95876.41
2022-08-16T22:26:32.302Z,95880.97
2022-08-16T22:29:08.780Z,95883.19
2022-08-16T22:31:37.646Z,95880.06
2022-08-16T22:34:05.200Z,95886.09
2022-08-16T22:36:33.241Z,95885.94
2022-08-16T22:39:03.782Z,95894.03
2022-08-16T22:41:32.682Z,95889.91
2022-08-16T22:44:01.461Z,95891.78
2022-08-16T22:46:29.372Z,95884.63
2022-08-16T22:48:56.441Z,95885.94
2022-08-16T22:51:26.693Z,95884.69
2022-08-16T22:53:54.860Z,95884.44
2022-08-16T22:56:23.201Z,95872.72
2022-08-16T22:58:50.340Z,95879.97
2022-08-16T23:01:19.425Z,95879.06
2022-08-16T23:03:46.481Z,95872.22
2022-08-16T23:06:14.854Z,95878.38
2022-08-16T23:08:43.221Z,95877.34
2022-08-16T23:11:20.482Z,95870.31
2022-08-16T23:13:49.833Z,95873.81
2022-08-16T23:16:33.926Z,95872.25
2022-08-16T23:19:08.310Z,95869.75
2022-08-16T23:21:37.378Z,95865.22
2022-08-16T23:24:05.121Z,95871.44
2022-08-16T23:26:47.204Z,95866.13
2022-08-16T23:29:26.594Z,95859.03
2022-08-16T23:32:08.559Z,95866.38
2022-08-16T23:34:35.590Z,95862.19
2022-08-16T23:37:02.510Z,95858.84
2022-08-16T23:39:29.724Z,95852.59
2022-08-16T23:41:57.003Z,95854.66
2022-08-16T23:44:56.368Z,95852.78
2022-08-16T23:47:11.143Z,95847.44
2022-08-16T23:49:56.030Z,95851.59
2022-08-16T23:52:42.124Z,95851.34
2022-08-16T23:55:12.590Z,95855.72
2022-08-16T23:57:39.651Z,95862.19
